createdAt,value
2018-09-16T00:01:41.985Z,94062.53
2018-09-16T00:04:18.790Z,94064.32
2018-09-16T00:06:47.160Z,94061.23
2018-09-16T00:09:15.720Z,94059.62
2018-09-16T00:11:44.193Z,94060.88
2018-09-16T00:14:12.608Z,94059.09
2018-09-16T00:16:42.135Z,94064.65
2018-09-16T00:19:10.686Z,94061.75
2018-09-16T00:21:39.460Z,94057.05
2018-09-16T00:24:08.036Z,94060.00
2018-09-16T00:26:36.421Z,94058.73
2018-09-16T00:29:04.891Z,94059.16
2018-09-16T00:31:33.615Z,94053.40
2018-09-16T00:34:02.002Z,94052.00
2018-09-16T00:36:36.486Z,94053.98
2018-09-16T00:39:07.438Z,94057.99
2018-09-16T00:41:35.827Z,94056.57
2018-09-16T00:44:04.524Z,94061.70
2018-09-16T00:46:47.017Z,94060.11
2018-09-16T00:49:15.339Z,94057.18
2018-09-16T00:51:43.736Z,94059.80
2018-09-16T00:54:12.122Z,94058.23
2018-09-16T00:56:40.535Z,94051.70
2018-09-16T00:59:09.177Z,94052.91
2018-09-16T01:01:37.715Z,94052.34
2018-09-16T01:04:06.232Z,94054.95
2018-09-16T01:06:38.455Z,94058.30
2018-09-16T01:09:13.186Z,94065.91
2018-09-16T01:11:41.599Z,94062.47
2018-09-16T01:14:10.332Z,94058.36
2018-09-16T01:16:40.015Z,94059.09
2018-09-16T01:19:09.082Z,94057.14
2018-09-16T01:21:38.090Z,94053.86
2018-09-16T01:24:06.795Z,94056.47
2018-09-16T01:26:35.712Z,94056.03
2018-09-16T01:29:04.325Z,94054.05
2018-09-16T01:31:32.837Z,94053.63
2018-09-16T01:34:01.245Z,94053.95
2018-09-16T01:36:29.706Z,94054.27
2018-09-16T01:38:58.059Z,94052.03
2018-09-16T01:41:26.669Z,94052.23
2018-09-16T01:43:55.123Z,94056.44
2018-09-16T01:46:26.951Z,94057.67
2018-09-16T01:48:55.442Z,94053.55
2018-09-16T01:51:23.898Z,94059.36
2018-09-16T01:53:52.248Z,94063.18
2018-09-16T01:56:20.699Z,94070.29
2018-09-16T01:58:49.174Z,94063.43
2018-09-16T02:01:17.637Z,94070.50
2018-09-16T02:03:46.215Z,94071.37
2018-09-16T02:06:16.699Z,94072.72
2018-09-16T02:08:45.057Z,94069.02
2018-09-16T02:11:13.565Z,94071.92
2018-09-16T02:13:42.082Z,94066.64
2018-09-16T02:16:10.527Z,94071.13
2018-09-16T02:18:38.945Z,94068.69
2018-09-16T02:21:07.116Z,94069.61
2018-09-16T02:23:35.379Z,94068.62
2018-09-16T02:26:07.386Z,94071.23
2018-09-16T02:28:35.447Z,94073.55
2018-09-16T02:31:03.459Z,94071.98
2018-09-16T02:33:31.651Z,94071.64
2018-09-16T02:35:59.803Z,94077.46
2018-09-16T02:38:27.892Z,94076.91
2018-09-16T02:40:56.021Z,94083.11
2018-09-16T02:43:24.048Z,94074.47
2018-09-16T02:45:57.541Z,94078.55
2018-09-16T02:48:25.650Z,94080.53
2018-09-16T02:50:53.691Z,94081.98
2018-09-16T02:53:21.904Z,94085.81
2018-09-16T02:55:50.319Z,94084.52
2018-09-16T02:58:18.395Z,94085.83
2018-09-16T03:00:46.594Z,94086.22
2018-09-16T03:03:14.673Z,94084.73
2018-09-16T03:05:49.464Z,94085.66
2018-09-16T03:08:18.623Z,94089.48
2018-09-16T03:10:46.797Z,94091.05
2018-09-16T03:13:15.441Z,94093.22
2018-09-16T03:15:43.890Z,94094.70
2018-09-16T03:18:12.120Z,94098.53
2018-09-16T03:20:40.160Z,94100.69
2018-09-16T03:23:08.513Z,94099.56
2018-09-16T03:25:37.611Z,94103.21
2018-09-16T03:28:05.824Z,94095.66
2018-09-16T03:30:33.994Z,94097.70
2018-09-16T03:33:02.230Z,94093.25
2018-09-16T03:35:30.269Z,94094.08
2018-09-16T03:37:58.288Z,94097.52
2018-09-16T03:40:26.400Z,94101.91
2018-09-16T03:42:54.595Z,94105.16
2018-09-16T03:45:23.714Z,94103.86
2018-09-16T03:47:51.784Z,94101.98
2018-09-16T03:50:20.180Z,94106.09
2018-09-16T03:52:48.212Z,94105.70
2018-09-16T03:55:18.466Z,94104.78
2018-09-16T03:57:46.750Z,94108.13
2018-09-16T04:00:15.015Z,94102.82
2018-09-16T04:02:43.142Z,94100.25
2018-09-16T04:05:11.235Z,94104.41
2018-09-16T04:07:39.375Z,94111.63
2018-09-16T04:10:07.498Z,94106.09
2018-09-16T04:12:35.771Z,94107.12
2018-09-16T04:15:04.453Z,94114.59
2018-09-16T04:17:32.682Z,94112.79
2018-09-16T04:20:00.984Z,94115.02
2018-09-16T04:22:29.203Z,94126.56
2018-09-16T04:24:57.602Z,94126.77
2018-09-16T04:27:25.658Z,94141.18
2018-09-16T04:29:53.705Z,94141.56
2018-09-16T04:32:21.871Z,94141.00
2018-09-16T04:34:50.047Z,94148.72
2018-09-16T04:37:18.188Z,94141.45
2018-09-16T04:39:46.223Z,94145.84
2018-09-16T04:42:14.276Z,94148.56
2018-09-16T04:44:42.532Z,94151.07
2018-09-16T04:47:10.707Z,94154.72
2018-09-16T04:49:38.816Z,94155.73
2018-09-16T04:52:07.043Z,94152.67
2018-09-16T04:54:35.241Z,94157.39
2018-09-16T04:57:03.393Z,94157.55
2018-09-16T04:59:32.055Z,94163.01
2018-09-16T05:02:00.129Z,94165.08
2018-09-16T05:04:28.307Z,94158.88
2018-09-16T05:06:56.684Z,94160.41
2018-09-16T05:09:24.810Z,94158.08
2018-09-16T05:11:53.354Z,94153.30
2018-09-16T05:14:21.513Z,94159.50
2018-09-16T05:16:49.846Z,94162.48
2018-09-16T05:19:18.149Z,94164.03
2018-09-16T05:21:46.371Z,94168.85
2018-09-16T05:24:14.438Z,94164.25
2018-09-16T05:26:45.023Z,94164.04
2018-09-16T05:29:13.468Z,94163.70
2018-09-16T05:31:42.031Z,94169.48
2018-09-16T05:34:10.359Z,94172.55
2018-09-16T05:36:41.758Z,94170.77
2018-09-16T05:39:11.418Z,94182.59
2018-09-16T05:41:40.410Z,94185.61
2018-09-16T05:44:09.193Z,94180.97
2018-09-16T05:46:39.262Z,94176.09
2018-09-16T05:49:07.986Z,94195.47
2018-09-16T05:51:37.210Z,94206.80
2018-09-16T05:54:06.047Z,94190.98
2018-09-16T05:56:34.822Z,94188.98
2018-09-16T05:59:03.773Z,94193.67
2018-09-16T06:01:32.312Z,94192.69
2018-09-16T06:04:01.042Z,94185.46
2018-09-16T06:06:34.458Z,94185.70
2018-09-16T06:09:03.213Z,94194.43
2018-09-16T06:11:32.496Z,94184.47
2018-09-16T06:14:01.254Z,94182.34
2018-09-16T06:16:30.028Z,94194.82
2018-09-16T06:18:58.662Z,94191.73
2018-09-16T06:21:27.462Z,94190.84
2018-09-16T06:23:57.051Z,94194.69
2018-09-16T06:26:27.693Z,94196.35
2018-09-16T06:28:59.549Z,94199.22
2018-09-16T06:31:28.783Z,94196.13
2018-09-16T06:33:57.730Z,94189.89
2018-09-16T06:36:31.767Z,94203.18
2018-09-16T06:39:03.756Z,94203.27
2018-09-16T06:41:35.732Z,94200.19
2018-09-16T06:44:06.941Z,94201.75
2018-09-16T06:46:42.515Z,94198.80
2018-09-16T06:49:11.608Z,94204.83
2018-09-16T06:51:41.142Z,94206.56
2018-09-16T06:54:09.982Z,94193.14
2018-09-16T06:56:39.685Z,94198.29
2018-09-16T06:59:08.364Z,94204.01
2018-09-16T07:01:37.514Z,94202.69
2018-09-16T07:04:06.385Z,94193.51
2018-09-16T07:06:37.759Z,94194.58
2018-09-16T07:09:11.925Z,94200.95
2018-09-16T07:11:42.429Z,94201.00
2018-09-16T07:14:17.343Z,94205.39
2018-09-16T07:16:46.517Z,94200.77
2018-09-16T07:19:15.383Z,94198.56
2018-09-16T07:21:44.010Z,94196.13
2018-09-16T07:24:12.635Z,94200.15
2018-09-16T07:26:43.117Z,94204.73
2018-09-16T07:29:11.508Z,94201.49
2018-09-16T07:31:39.930Z,94196.13
2018-09-16T07:34:08.450Z,94192.53
2018-09-16T07:36:37.057Z,94189.39
2018-09-16T07:39:08.282Z,94191.77
2018-09-16T07:41:37.142Z,94188.51
2018-09-16T07:44:07.336Z,94191.95
2018-09-16T07:46:36.204Z,94183.91
2018-09-16T07:49:06.270Z,94183.61
2018-09-16T07:51:36.407Z,94182.93
2018-09-16T07:54:06.857Z,94185.21
2018-09-16T07:56:35.943Z,94183.55
2018-09-16T07:59:04.430Z,94184.81
2018-09-16T08:01:32.899Z,94187.38
2018-09-16T08:04:01.654Z,94187.03
2018-09-16T08:06:29.935Z,94185.97
2018-09-16T08:08:58.373Z,94182.30
2018-09-16T08:11:26.758Z,94180.36
2018-09-16T08:13:55.543Z,94180.78
2018-09-16T08:16:24.133Z,94189.22
2018-09-16T08:18:54.315Z,94185.95
2018-09-16T08:21:23.634Z,94184.27
2018-09-16T08:23:55.443Z,94178.25
2018-09-16T08:26:27.389Z,94179.88
2018-09-16T08:28:57.886Z,94182.51
2018-09-16T08:31:26.907Z,94177.56
2018-09-16T08:33:55.607Z,94181.84
2018-09-16T08:36:24.239Z,94173.20
2018-09-16T08:38:53.834Z,94168.41
2018-09-16T08:41:22.581Z,94166.09
2018-09-16T08:43:51.086Z,94163.91
2018-09-16T08:46:20.903Z,94162.42
2018-09-16T08:48:49.710Z,94163.61
2018-09-16T08:51:18.497Z,94161.95
2018-09-16T08:53:49.113Z,94151.47
2018-09-16T08:56:19.667Z,94156.10
2018-09-16T08:58:48.157Z,94164.95
2018-09-16T09:01:18.686Z,94161.59
2018-09-16T09:03:47.413Z,94164.10
2018-09-16T09:06:15.997Z,94160.25
2018-09-16T09:08:44.437Z,94162.06
2018-09-16T09:11:13.106Z,94159.58
2018-09-16T09:13:42.040Z,94150.45
2018-09-16T09:16:11.454Z,94145.64
2018-09-16T09:18:41.384Z,94147.91
2018-09-16T09:21:10.390Z,94146.64
2018-09-16T09:23:42.892Z,94154.14
2018-09-16T09:26:14.880Z,94158.29
2018-09-16T09:28:44.058Z,94155.11
2018-09-16T09:31:14.768Z,94145.20
2018-09-16T09:33:44.777Z,94143.81
2018-09-16T09:36:13.595Z,94144.54
2018-09-16T09:38:42.404Z,94142.33
2018-09-16T09:41:11.350Z,94133.33
2018-09-16T09:43:40.246Z,94132.95
2018-09-16T09:46:08.840Z,94129.34
2018-09-16T09:48:37.483Z,94135.91
2018-09-16T09:51:05.477Z,94137.27
2018-09-16T09:53:33.821Z,94135.20
2018-09-16T09:56:02.620Z,94132.52
2018-09-16T09:58:31.202Z,94137.70
2018-09-16T10:00:59.610Z,94130.53
2018-09-16T10:03:28.090Z,94131.38
2018-09-16T10:05:56.571Z,94131.55
2018-09-16T10:08:31.525Z,94128.55
2018-09-16T10:11:00.401Z,94141.20
2018-09-16T10:13:28.816Z,94136.86
2018-09-16T10:15:57.350Z,94135.41
2018-09-16T10:18:25.702Z,94129.53
2018-09-16T10:20:54.294Z,94128.65
2018-09-16T10:23:22.513Z,94124.39
2018-09-16T10:25:51.479Z,94134.19
2018-09-16T10:28:20.238Z,94132.23
2018-09-16T10:30:48.503Z,94132.36
2018-09-16T10:33:16.759Z,94138.15
2018-09-16T10:35:45.723Z,94129.03
2018-09-16T10:38:15.307Z,94135.02
2018-09-16T10:40:43.988Z,94134.20
2018-09-16T10:43:13.582Z,94136.19
2018-09-16T10:45:42.673Z,94134.70
2018-09-16T10:48:11.630Z,94130.34
2018-09-16T10:50:41.656Z,94120.90
2018-09-16T10:53:10.779Z,94121.60
2018-09-16T10:55:42.288Z,94122.25
2018-09-16T10:58:15.060Z,94124.28
2018-09-16T11:00:43.954Z,94118.66
2018-09-16T11:03:14.137Z,94119.20
2018-09-16T11:05:43.517Z,94118.48
2018-09-16T11:08:12.483Z,94119.00
2018-09-16T11:10:41.434Z,94114.64
2018-09-16T11:13:11.079Z,94116.11
2018-09-16T11:15:41.217Z,94109.75
2018-09-16T11:18:10.355Z,94109.13
2018-09-16T11:20:39.773Z,94114.48
2018-09-16T11:23:10.061Z,94102.20
2018-09-16T11:25:40.292Z,94091.81
2018-09-16T11:28:09.333Z,94100.94
2018-09-16T11:30:38.660Z,94099.77
2018-09-16T11:33:08.472Z,94098.34
2018-09-16T11:35:38.330Z,94092.50
2018-09-16T11:38:08.475Z,94083.38
2018-09-16T11:40:38.251Z,94081.70
2018-09-16T11:43:08.910Z,94084.66
2018-09-16T11:45:39.867Z,94083.41
2018-09-16T11:48:09.328Z,94094.41
2018-09-16T11:50:39.247Z,94092.13
2018-09-16T11:53:08.433Z,94092.31
2018-09-16T11:55:38.297Z,94092.68
2018-09-16T11:58:08.082Z,94092.08
2018-09-16T12:00:37.852Z,94079.81
2018-09-16T12:03:07.675Z,94084.64
2018-09-16T12:05:37.328Z,94074.30
2018-09-16T12:08:07.256Z,94076.94
2018-09-16T12:10:36.869Z,94074.92
2018-09-16T12:13:06.695Z,94075.60
2018-09-16T12:15:35.639Z,94081.13
2018-09-16T12:18:05.212Z,94081.84
2018-09-16T12:20:34.146Z,94076.88
2018-09-16T12:23:03.999Z,94078.74
2018-09-16T12:25:32.840Z,94080.72
2018-09-16T12:28:02.536Z,94074.56
2018-09-16T12:30:32.059Z,94070.84
2018-09-16T12:33:01.794Z,94067.03
2018-09-16T12:35:31.256Z,94070.03
2018-09-16T12:38:00.380Z,94071.21
2018-09-16T12:40:30.176Z,94068.91
2018-09-16T12:42:58.963Z,94067.45
2018-09-16T12:45:27.895Z,94060.97
2018-09-16T12:47:58.911Z,94059.29
2018-09-16T12:50:27.970Z,94052.95
2018-09-16T12:52:56.797Z,94052.57
2018-09-16T12:55:26.225Z,94050.89
2018-09-16T12:57:55.875Z,94046.03
2018-09-16T13:00:26.569Z,94046.95
2018-09-16T13:03:00.186Z,94053.89
2018-09-16T13:05:41.009Z,94052.72
2018-09-16T13:08:16.854Z,94051.49
2018-09-16T13:10:51.952Z,94040.83
2018-09-16T13:13:29.534Z,94043.56
2018-09-16T13:16:06.931Z,94043.48
2018-09-16T13:18:46.057Z,94044.25
2018-09-16T13:21:25.448Z,94040.91
2018-09-16T13:24:00.339Z,94049.38
2018-09-16T13:26:37.042Z,94043.44
2018-09-16T13:29:09.132Z,94041.33
2018-09-16T13:31:41.043Z,94048.33
2018-09-16T13:34:14.955Z,94044.48
2018-09-16T13:36:45.545Z,94048.45
2018-09-16T13:39:15.707Z,94045.18
2018-09-16T13:41:44.182Z,94053.61
2018-09-16T13:44:13.253Z,94053.11
2018-09-16T13:46:41.693Z,94054.55
2018-09-16T13:49:09.946Z,94061.97
2018-09-16T13:51:38.060Z,94057.80
2018-09-16T13:54:07.807Z,94055.09
2018-09-16T13:56:38.259Z,94055.87
2018-09-16T13:59:07.126Z,94053.27
2018-09-16T14:01:37.701Z,94053.27
2018-09-16T14:04:08.056Z,94055.00
2018-09-16T14:06:37.186Z,94055.48
2018-09-16T14:09:08.420Z,94050.00
2018-09-16T14:11:37.266Z,94046.67
2018-09-16T14:14:06.026Z,94046.84
2018-09-16T14:16:35.845Z,94045.34
2018-09-16T14:19:05.012Z,94043.50
2018-09-16T14:21:33.991Z,94039.36
2018-09-16T14:24:02.715Z,94044.17
2018-09-16T14:26:31.662Z,94049.17
2018-09-16T14:29:00.378Z,94045.03
2018-09-16T14:31:28.969Z,94041.32
2018-09-16T14:33:57.610Z,94038.82
2018-09-16T14:36:26.454Z,94045.05
2018-09-16T14:38:55.317Z,94047.04
2018-09-16T14:41:25.160Z,94044.73
2018-09-16T14:43:54.688Z,94044.12
2018-09-16T14:46:24.531Z,94046.82
2018-09-16T14:48:53.810Z,94042.38
2018-09-16T14:51:22.384Z,94047.52
2018-09-16T14:53:51.222Z,94047.20
2018-09-16T14:56:20.091Z,94047.98
2018-09-16T14:58:48.898Z,94046.47
2018-09-16T15:01:17.541Z,94047.98
2018-09-16T15:03:46.507Z,94041.00
2018-09-16T15:06:15.514Z,94041.00
2018-09-16T15:08:45.987Z,94044.30
2018-09-16T15:11:14.935Z,94048.10
2018-09-16T15:13:43.523Z,94052.34
2018-09-16T15:16:12.774Z,94057.52
2018-09-16T15:18:41.818Z,94063.56
2018-09-16T15:21:10.870Z,94064.16
2018-09-16T15:23:39.968Z,94061.46
2018-09-16T15:26:08.689Z,94061.72
2018-09-16T15:28:37.701Z,94061.13
2018-09-16T15:31:06.438Z,94057.41
2018-09-16T15:33:35.364Z,94058.05
2018-09-16T15:39:00.192Z,94065.19
2018-09-16T15:41:28.671Z,94059.60
2018-09-16T15:43:57.376Z,94060.83
2018-09-16T15:46:25.819Z,94066.59
2018-09-16T15:48:54.429Z,94061.16
2018-09-16T15:51:22.978Z,94061.19
2018-09-16T15:53:51.819Z,94060.12
2018-09-16T15:56:20.368Z,94060.77
2018-09-16T15:58:49.262Z,94066.91
2018-09-16T16:01:17.871Z,94070.13
2018-09-16T16:03:46.767Z,94069.59
2018-09-16T16:06:15.684Z,94077.83
2018-09-16T16:08:45.121Z,94070.40
2018-09-16T16:11:13.922Z,94072.86
2018-09-16T16:13:43.113Z,94074.58
2018-09-16T16:16:11.751Z,94076.75
2018-09-16T16:18:40.566Z,94079.14
2018-09-16T16:21:09.322Z,94074.59
2018-09-16T16:23:37.993Z,94078.86
2018-09-16T16:26:06.680Z,94080.47
2018-09-16T16:28:35.250Z,94080.47
2018-09-16T16:31:03.871Z,94081.52
2018-09-16T16:33:33.791Z,94081.35
2018-09-16T16:36:02.676Z,94081.66
2018-09-16T16:38:31.679Z,94085.27
2018-09-16T16:41:00.256Z,94088.06
2018-09-16T16:43:28.903Z,94089.47
2018-09-16T16:45:57.554Z,94090.50
2018-09-16T16:48:26.037Z,94092.22
2018-09-16T16:50:54.789Z,94098.31
2018-09-16T16:53:23.589Z,94101.77
2018-09-16T16:55:52.314Z,94100.69
2018-09-16T16:58:22.146Z,94107.63
2018-09-16T17:00:50.939Z,94110.81
2018-09-16T17:03:19.417Z,94107.91
2018-09-16T17:05:48.198Z,94119.58
2018-09-16T17:08:16.951Z,94119.31
2018-09-16T17:10:45.795Z,94127.13
2018-09-16T17:13:14.479Z,94125.94
2018-09-16T17:15:43.304Z,94140.55
2018-09-16T17:18:12.215Z,94143.79
2018-09-16T17:20:41.765Z,94145.95
2018-09-16T17:23:11.924Z,94151.33
2018-09-16T17:25:42.055Z,94143.92
2018-09-16T17:28:11.640Z,94152.10
2018-09-16T17:30:40.588Z,94155.68
2018-09-16T17:33:12.415Z,94158.83
2018-09-16T17:35:43.027Z,94156.14
2018-09-16T17:38:16.652Z,94167.06
2018-09-16T17:40:45.938Z,94168.19
2018-09-16T17:43:17.699Z,94171.07
2018-09-16T17:45:46.775Z,94175.38
2018-09-16T17:48:16.776Z,94171.95
2018-09-16T17:50:50.386Z,94178.31
2018-09-16T17:53:19.408Z,94172.91
2018-09-16T17:55:48.273Z,94176.81
2018-09-16T17:58:17.019Z,94185.42
2018-09-16T18:00:45.766Z,94185.01
2018-09-16T18:03:14.488Z,94192.19
2018-09-16T18:05:43.041Z,94197.81
2018-09-16T18:08:11.803Z,94202.13
2018-09-16T18:10:40.451Z,94206.30
2018-09-16T18:13:09.022Z,94211.55
2018-09-16T18:15:37.789Z,94212.49
2018-09-16T18:18:06.757Z,94215.11
2018-09-16T18:20:35.527Z,94210.34
2018-09-16T18:23:04.379Z,94217.63
2018-09-16T18:25:33.039Z,94217.13
2018-09-16T18:28:01.770Z,94218.19
2018-09-16T18:30:30.609Z,94217.20
2018-09-16T18:32:59.098Z,94219.95
2018-09-16T18:35:27.913Z,94222.54
2018-09-16T18:37:56.539Z,94215.70
2018-09-16T18:40:24.869Z,94216.37
2018-09-16T18:42:52.974Z,94227.81
2018-09-16T18:45:21.181Z,94224.45
2018-09-16T18:47:50.301Z,94225.57
2018-09-16T18:50:18.570Z,94224.88
2018-09-16T18:52:46.883Z,94237.38
2018-09-16T18:55:15.037Z,94238.52
2018-09-16T18:57:44.194Z,94236.94
2018-09-16T19:00:12.529Z,94235.70
2018-09-16T19:02:40.816Z,94236.48
2018-09-16T19:05:08.912Z,94244.42
2018-09-16T19:07:37.138Z,94244.31
2018-09-16T19:10:05.331Z,94241.66
2018-09-16T19:12:33.466Z,94242.06
2018-09-16T19:15:01.631Z,94241.16
2018-09-16T19:17:29.888Z,94236.02
2018-09-16T19:19:58.063Z,94238.20
2018-09-16T19:22:26.113Z,94236.84
2018-09-16T19:24:57.028Z,94240.25
2018-09-16T19:27:30.702Z,94235.07
2018-09-16T19:30:01.748Z,94230.64
2018-09-16T19:32:30.888Z,94235.84
2018-09-16T19:34:58.985Z,94231.28
2018-09-16T19:37:27.154Z,94230.55
2018-09-16T19:39:55.487Z,94224.98
2018-09-16T19:42:23.602Z,94227.98
2018-09-16T19:44:51.735Z,94222.13
2018-09-16T19:47:20.110Z,94223.77
2018-09-16T19:49:48.207Z,94217.04
2018-09-16T19:52:16.280Z,94225.12
2018-09-16T19:54:44.412Z,94223.28
2018-09-16T19:57:12.572Z,94218.69
2018-09-16T19:59:40.716Z,94225.33
2018-09-16T20:02:08.820Z,94223.97
2018-09-16T20:04:36.950Z,94223.19
2018-09-16T20:07:05.133Z,94221.16
2018-09-16T20:09:33.279Z,94226.58
2018-09-16T20:12:01.421Z,94219.73
2018-09-16T20:14:29.601Z,94219.98
2018-09-16T20:16:57.878Z,94217.31
2018-09-16T20:19:26.035Z,94220.45
2018-09-16T20:21:54.110Z,94220.39
2018-09-16T20:24:22.175Z,94225.75
2018-09-16T20:26:50.422Z,94229.67
2018-09-16T20:29:18.591Z,94227.92
2018-09-16T20:31:46.619Z,94226.61
2018-09-16T20:34:14.811Z,94231.30
2018-09-16T20:36:43.427Z,94234.48
2018-09-16T20:39:12.148Z,94237.90
2018-09-16T20:41:41.359Z,94236.88
2018-09-16T20:44:09.468Z,94236.40
2018-09-16T20:46:37.715Z,94230.53
2018-09-16T20:49:06.079Z,94241.94
2018-09-16T20:51:34.175Z,94235.69
2018-09-16T20:54:02.314Z,94236.73
2018-09-16T20:56:30.527Z,94237.22
2018-09-16T20:58:58.647Z,94235.53
2018-09-16T21:01:26.889Z,94226.50
2018-09-16T21:03:55.301Z,94242.63
2018-09-16T21:06:23.344Z,94240.33
2018-09-16T21:08:51.496Z,94235.77
2018-09-16T21:11:20.819Z,94240.92
2018-09-16T21:13:48.992Z,94241.67
2018-09-16T21:16:17.349Z,94238.16
2018-09-16T21:18:46.081Z,94237.04
2018-09-16T21:21:14.297Z,94239.39
2018-09-16T21:23:42.366Z,94237.09
2018-09-16T21:26:10.677Z,94235.88
2018-09-16T21:28:38.876Z,94229.77
2018-09-16T21:31:06.932Z,94234.64
2018-09-16T21:33:34.995Z,94233.12
2018-09-16T21:36:03.235Z,94232.38
2018-09-16T21:38:31.477Z,94231.64
2018-09-16T21:40:59.510Z,94231.95
2018-09-16T21:43:29.063Z,94240.27
2018-09-16T21:45:57.231Z,94238.41
2018-09-16T21:48:25.596Z,94235.79
2018-09-16T21:50:53.920Z,94240.45
2018-09-16T21:53:21.939Z,94240.45
2018-09-16T21:55:49.976Z,94241.45
2018-09-16T21:58:18.101Z,94238.58
2018-09-16T22:00:52.148Z,94236.63
2018-09-16T22:03:20.648Z,94238.03
2018-09-16T22:05:48.691Z,94238.21
2018-09-16T22:08:16.896Z,94233.38
2018-09-16T22:10:45.414Z,94235.44
2018-09-16T22:13:13.511Z,94226.94
2018-09-16T22:15:41.684Z,94237.00
2018-09-16T22:18:09.760Z,94234.70
2018-09-16T22:20:38.308Z,94228.91
2018-09-16T22:23:06.347Z,94233.57
2018-09-16T22:25:34.454Z,94231.64
2018-09-16T22:28:02.866Z,94235.09
2018-09-16T22:30:30.840Z,94230.99
2018-09-16T22:32:58.890Z,94237.61
2018-09-16T22:35:27.091Z,94236.22
2018-09-16T22:37:55.229Z,94238.64
2018-09-16T22:40:23.344Z,94236.13
2018-09-16T22:42:51.817Z,94235.56
2018-09-16T22:45:19.833Z,94244.31
2018-09-16T22:47:47.953Z,94241.99
2018-09-16T22:50:15.986Z,94246.47
2018-09-16T22:52:44.027Z,94236.77
2018-09-16T22:55:12.128Z,94242.47
2018-09-16T22:57:40.254Z,94236.77
2018-09-16T23:00:12.062Z,94230.23
2018-09-16T23:02:40.177Z,94231.75
2018-09-16T23:05:08.174Z,94231.66
2018-09-16T23:07:36.242Z,94227.36
2018-09-16T23:10:04.232Z,94225.41
2018-09-16T23:12:32.242Z,94223.35
2018-09-16T23:15:00.397Z,94224.20
2018-09-16T23:17:28.630Z,94219.08
2018-09-16T23:19:56.803Z,94218.42
2018-09-16T23:22:24.927Z,94218.50
2018-09-16T23:24:52.921Z,94219.88
2018-09-16T23:27:21.057Z,94218.69
2018-09-16T23:29:49.116Z,94225.28
2018-09-16T23:32:17.092Z,94223.87
2018-09-16T23:34:45.149Z,94222.55
2018-09-16T23:37:13.152Z,94223.19
2018-09-16T23:39:41.138Z,94227.86
2018-09-16T23:42:09.140Z,94230.08
2018-09-16T23:44:37.193Z,94228.50
2018-09-16T23:47:05.347Z,94234.08
2018-09-16T23:49:33.329Z,94230.10
2018-09-16T23:52:01.379Z,94233.34
2018-09-16T23:54:29.436Z,94235.95
2018-09-16T23:56:57.574Z,94239.27
2018-09-16T23:59:25.649Z,94236.86
